createdAt,value
2023-03-04T01:48:08.645Z,100276.78
2023-03-04T01:51:29.247Z,100270.72
2023-03-04T01:54:32.618Z,100266.59
2023-03-04T01:57:36.562Z,100266.81
2023-03-04T02:00:40.260Z,100263.13
2023-03-04T09:41:58.619Z,99996.19
2023-03-04T10:01:59.937Z,99969.66
2023-03-04T10:05:05.726Z,99972.28
2023-03-04T10:08:27.249Z,99963.50
2023-03-04T10:11:34.993Z,99967.78
2023-03-04T10:15:07.675Z,99969.47
2023-03-04T10:18:22.435Z,99965.13
2023-03-04T10:21:32.235Z,99961.50
2023-03-04T10:24:35.855Z,99959.81
2023-03-04T10:27:38.471Z,99963.13
2023-03-04T10:30:55.709Z,99956.13
2023-03-04T10:33:58.203Z,99942.94
2023-03-04T10:37:02.854Z,99948.22
2023-03-04T10:40:06.017Z,99943.84
2023-03-04T10:43:30.174Z,99939.56
2023-03-04T10:46:33.021Z,99934.31
2023-03-04T10:49:53.782Z,99943.06
2023-03-04T10:52:57.331Z,99929.72
2023-03-04T10:56:00.457Z,99934.31
2023-03-04T10:59:34.499Z,99930.81
2023-03-04T11:02:37.781Z,99939.63
2023-03-04T11:05:40.348Z,99929.88
2023-03-04T11:08:44.138Z,99943.78
2023-03-04T11:11:46.730Z,99944.72
2023-03-04T11:14:52.935Z,99945.41
2023-03-04T11:17:59.880Z,99945.69
2023-03-04T11:21:02.742Z,99930.72
2023-03-04T11:24:27.163Z,99946.69
2023-03-04T11:27:37.750Z,99936.13
2023-03-04T11:30:42.243Z,99947.38
2023-03-04T11:33:59.217Z,99937.69
2023-03-04T11:37:23.466Z,99945.03
2023-03-04T11:40:35.554Z,99937.03
2023-03-04T11:43:40.038Z,99942.06
2023-03-04T11:47:15.349Z,99936.88
2023-03-04T11:50:35.834Z,99941.19
2023-03-04T11:53:45.495Z,99934.19
2023-03-04T11:56:53.826Z,99932.53
2023-03-04T12:00:20.823Z,99929.16
2023-03-04T12:03:43.417Z,99931.78
2023-03-04T12:07:27.650Z,99921.66
2023-03-04T12:10:41.989Z,99919.19
2023-03-04T12:14:09.819Z,99907.31
2023-03-04T12:17:27.082Z,99900.50
2023-03-04T12:20:44.938Z,99897.31
2023-03-04T12:24:28.141Z,99908.13
2023-03-04T12:27:37.259Z,99910.94
2023-03-04T12:30:58.560Z,99892.59
2023-03-04T12:34:31.089Z,99901.56
2023-03-04T12:37:50.087Z,99887.66
2023-03-04T12:41:01.664Z,99893.22
2023-03-04T12:44:20.122Z,99886.25
2023-03-04T12:47:41.412Z,99880.91
2023-03-04T12:50:46.905Z,99894.97
2023-03-04T12:53:52.588Z,99888.00
2023-03-04T12:56:58.818Z,99880.91
2023-03-04T13:00:29.746Z,99890.63
2023-03-04T13:03:44.306Z,99887.94
2023-03-04T13:07:20.190Z,99910.63
2023-03-04T13:10:23.952Z,99931.00
2023-03-04T13:13:32.835Z,99956.66
2023-03-04T13:16:48.749Z,99937.31
2023-03-04T13:19:57.079Z,99915.28
2023-03-04T13:23:10.434Z,99909.84
2023-03-04T13:26:21.703Z,99920.22
2023-03-04T13:29:24.508Z,99915.94
2023-03-04T13:32:38.697Z,99910.88
2023-03-04T13:35:47.683Z,99907.44
2023-03-04T13:38:59.120Z,99905.84
2023-03-04T13:42:02.245Z,99903.22
2023-03-04T13:45:26.243Z,99890.97
2023-03-04T13:48:36.656Z,99887.72
2023-03-04T13:51:43.339Z,99885.38
2023-03-04T13:54:46.046Z,99868.53
2023-03-04T13:57:50.394Z,99883.91
2023-03-04T14:00:55.533Z,99892.34
2023-03-04T14:04:00.318Z,99902.44
2023-03-04T14:07:17.318Z,99898.28
2023-03-04T14:10:25.294Z,99891.56
2023-03-04T14:13:28.696Z,99906.66
2023-03-04T14:16:34.831Z,99901.44
2023-03-04T14:19:43.736Z,99900.41
2023-03-04T14:22:46.690Z,99901.22
2023-03-04T14:25:49.339Z,99902.72
2023-03-04T14:28:57.140Z,99899.16
2023-03-04T14:32:00.492Z,99906.22
2023-03-04T14:35:08.470Z,99898.22
2023-03-04T14:38:32.508Z,99914.72
2023-03-04T14:41:38.908Z,99912.94
2023-03-04T14:44:50.947Z,99913.50
2023-03-04T14:48:06.726Z,99917.75
2023-03-04T15:11:32.825Z,99921.59
2023-03-04T15:14:54.250Z,99968.16
2023-03-04T15:18:02.063Z,99990.66
2023-03-04T15:21:19.922Z,99998.25
2023-03-04T15:24:23.589Z,100017.16
2023-03-04T15:27:30.118Z,100020.31
2023-03-04T15:30:34.787Z,100042.91
2023-03-04T15:33:39.489Z,100034.91
2023-03-04T15:36:47.793Z,100047.13
2023-03-04T15:39:53.562Z,100048.53
2023-03-04T15:42:58.248Z,100059.06
2023-03-04T15:46:01.390Z,100068.00
2023-03-04T15:49:04.678Z,100076.44
2023-03-04T15:52:12.102Z,100079.47
2023-03-04T15:55:18.241Z,100085.44
2023-03-04T15:58:24.896Z,100101.78
2023-03-04T16:01:27.990Z,100103.16
2023-03-04T16:04:31.724Z,100128.28
2023-03-04T16:07:38.177Z,100132.75
2023-03-04T16:10:44.617Z,100144.78
2023-03-04T16:13:47.563Z,100140.97
2023-03-04T16:16:50.881Z,100150.50
2023-03-04T16:19:54.273Z,100130.66
2023-03-04T16:23:00.658Z,100147.38
2023-03-04T16:26:03.347Z,100150.66
2023-03-04T16:29:06.740Z,100147.06
2023-03-04T16:32:10.208Z,100147.88
2023-03-04T16:35:15.303Z,100163.72
2023-03-04T16:38:33.398Z,100154.06
2023-03-04T16:41:38.889Z,100169.56
2023-03-04T16:44:41.988Z,100171.50
2023-03-04T16:47:45.879Z,100187.13
2023-03-04T16:50:51.258Z,100190.72
2023-03-04T16:53:57.188Z,100201.38
2023-03-04T16:57:00.315Z,100207.19
2023-03-04T17:00:06.893Z,100211.75
2023-03-04T17:03:12.610Z,100217.78
2023-03-04T17:06:16.876Z,100228.44
2023-03-04T17:09:19.768Z,100233.25
2023-03-04T17:12:23.161Z,100229.59
2023-03-04T17:15:25.920Z,100232.16
2023-03-04T17:18:31.350Z,100238.25
2023-03-04T17:21:34.480Z,100225.22
2023-03-04T17:24:37.674Z,100245.34
2023-03-04T17:27:41.460Z,100256.50
2023-03-04T17:30:44.986Z,100257.31
2023-03-04T17:33:48.681Z,100256.34
2023-03-04T17:36:52.770Z,100252.75
2023-03-04T17:39:58.212Z,100257.00
2023-03-04T17:43:04.684Z,100269.94
2023-03-04T17:46:10.265Z,100277.78
2023-03-04T17:49:14.726Z,100270.03
2023-03-04T17:52:19.705Z,100273.16
2023-03-04T17:55:24.110Z,100266.16
2023-03-04T17:58:29.765Z,100267.94
2023-03-04T18:01:34.705Z,100273.06
2023-03-04T18:04:38.769Z,100272.41
2023-03-04T18:07:43.211Z,100296.69
2023-03-04T18:10:48.101Z,100293.66
2023-03-04T18:13:54.311Z,100298.88
2023-03-04T18:16:59.694Z,100295.28
2023-03-04T18:20:03.965Z,100301.22
2023-03-04T18:23:08.927Z,100299.63
2023-03-04T18:26:14.421Z,100313.69
2023-03-04T18:29:23.573Z,100305.56
2023-03-04T18:32:28.389Z,100297.78
2023-03-04T18:35:32.791Z,100308.59
2023-03-04T18:38:38.102Z,100309.66
2023-03-04T18:41:41.612Z,100303.59
2023-03-04T18:44:46.191Z,100307.59
2023-03-04T18:47:55.072Z,100315.53
2023-03-04T18:50:59.764Z,100309.19
2023-03-04T18:54:03.494Z,100330.94
2023-03-04T18:57:14.738Z,100316.22
2023-03-04T19:00:24.867Z,100324.06
2023-03-04T19:03:30.584Z,100335.09
2023-03-04T19:06:36.601Z,100330.28
2023-03-04T19:09:41.497Z,100314.91
2023-03-04T19:12:46.672Z,100334.47
2023-03-04T19:15:53.985Z,100325.59
2023-03-04T19:19:00.856Z,100330.88
2023-03-04T19:22:08.832Z,100333.47
2023-03-04T19:25:13.951Z,100348.50
2023-03-04T19:28:18.108Z,100351.31
2023-03-04T19:31:21.955Z,100357.56
2023-03-04T19:34:26.245Z,100341.25
2023-03-04T19:37:31.030Z,100349.84
2023-03-04T19:40:35.981Z,100353.59
2023-03-04T19:43:40.104Z,100356.91
2023-03-04T19:46:43.955Z,100357.66
2023-03-04T19:49:53.954Z,100359.97
2023-03-04T19:52:58.788Z,100348.38
2023-03-04T19:56:04.160Z,100336.75
2023-03-04T19:59:12.311Z,100368.88
2023-03-04T20:02:55.919Z,100376.19
2023-03-04T20:14:06.905Z,100334.31
2023-03-04T20:21:14.117Z,100382.25
2023-03-04T20:24:28.004Z,100359.38
2023-03-04T20:27:35.769Z,100388.78
2023-03-04T20:30:40.232Z,100378.88
2023-03-04T20:33:46.369Z,100356.84
2023-03-04T20:36:51.440Z,100381.50
2023-03-04T20:39:58.978Z,100377.69
2023-03-04T20:43:08.365Z,100372.47
2023-03-04T20:46:30.819Z,100376.72
2023-03-04T20:49:36.787Z,100379.09
2023-03-04T20:52:40.579Z,100377.28
2023-03-04T20:55:45.862Z,100359.72
2023-03-04T20:58:50.700Z,100373.75
2023-03-04T21:01:54.804Z,100364.94
2023-03-04T21:04:57.818Z,100375.38
2023-03-04T21:08:01.656Z,100371.03
2023-03-04T21:11:04.821Z,100374.34
2023-03-04T21:14:14.471Z,100376.34
2023-03-04T21:17:17.607Z,100368.25
2023-03-04T21:20:22.933Z,100372.03
2023-03-04T21:23:26.828Z,100360.97
2023-03-04T21:26:30.386Z,100347.34
2023-03-04T21:29:33.756Z,100372.28
2023-03-04T21:32:40.137Z,100368.81
2023-03-04T21:35:46.096Z,100335.75
2023-03-04T21:38:50.454Z,100358.94
2023-03-04T21:41:54.536Z,100362.56
2023-03-04T21:44:58.985Z,100357.41
2023-03-04T21:48:01.899Z,100358.94
2023-03-04T21:51:07.853Z,100374.91
2023-03-04T21:54:12.233Z,100368.66
2023-03-04T21:57:15.592Z,100360.00
2023-03-04T22:00:19.151Z,100369.09
2023-03-04T22:03:23.972Z,100374.28
2023-03-04T22:06:27.645Z,100377.16
2023-03-04T22:09:30.745Z,100360.84
2023-03-04T22:12:33.741Z,100360.00
2023-03-04T22:15:38.320Z,100376.19
2023-03-04T22:18:41.101Z,100361.13
2023-03-04T22:21:44.103Z,100376.06
2023-03-04T22:24:46.779Z,100365.59
2023-03-04T22:27:49.846Z,100368.31
2023-03-04T22:30:52.809Z,100355.44
2023-03-04T22:33:56.876Z,100354.59
2023-03-04T22:36:59.525Z,100350.50
2023-03-04T22:40:02.868Z,100369.63
2023-03-04T22:43:05.524Z,100362.97
2023-03-04T22:46:13.529Z,100357.44
2023-03-04T22:49:16.308Z,100352.03
2023-03-04T22:52:19.310Z,100358.13
2023-03-04T22:55:23.181Z,100370.13
2023-03-04T22:58:26.207Z,100371.84
2023-03-04T23:01:28.867Z,100362.84
2023-03-04T23:04:31.815Z,100363.59
2023-03-04T23:07:36.468Z,100365.44
2023-03-04T23:10:41.901Z,100364.28
2023-03-04T23:13:44.946Z,100346.94
2023-03-04T23:16:49.479Z,100363.25
2023-03-04T23:19:52.542Z,100360.34
2023-03-04T23:22:56.564Z,100363.97
2023-03-04T23:26:02.632Z,100340.16
2023-03-04T23:29:11.769Z,100356.06
2023-03-04T23:37:31.819Z,100357.81
2023-03-04T23:40:40.040Z,100338.06
2023-03-04T23:44:08.946Z,100339.41
2023-03-04T23:47:13.251Z,100338.44
2023-03-04T23:50:16.614Z,100349.41
2023-03-04T23:53:19.990Z,100351.13
2023-03-04T23:56:25.292Z,100349.38
2023-03-04T23:59:29.248Z,100360.34
